Time;durP1;ratioP1;P1;durP2;ratioP2;P2;SDS_P1;SDS_P2;PMS_P1;PMS_P2;Temp;Humidity;BMP_temperature;BMP_pressure;BME280_temperature;BME280_humidity;BME280_pressure;Samples;Min_cycle;Max_cycle;Signal;HPM_P1;HPM_P2
2023/05/07 00:00:01;;;;;;;2.63;0.90;;;;;;;20.26;39.20;98479.13;5091792;28;20025;-47
2023/05/07 00:02:26;;;;;;;5.00;1.25;;;;;;;20.31;38.97;98481.81;5092771;28;20436;-47
2023/05/07 00:04:52;;;;;;;3.83;0.90;;;;;;;20.32;38.62;98483.38;5092714;28;20024;-47
2023/05/07 00:07:18;;;;;;;5.07;0.95;;;;;;;20.37;38.35;98464.75;5092622;28;20016;-47
2023/05/07 00:09:44;;;;;;;4.72;1.23;;;;;;;20.38;38.16;98482.31;5091564;28;20085;-47
2023/05/07 00:12:10;;;;;;;6.35;1.42;;;;;;;20.42;37.96;98475.38;5092572;28;20465;-47
2023/05/07 00:14:36;;;;;;;3.97;1.15;;;;;;;20.51;37.62;98496.97;5091138;28;20031;-47
2023/05/07 00:17:01;;;;;;;3.50;0.80;;;;;;;20.48;37.80;98487.66;5092416;28;20055;-47
2023/05/07 00:19:27;;;;;;;3.40;0.75;;;;;;;20.50;37.74;98498.84;5092492;28;20020;-47
2023/05/07 00:21:53;;;;;;;4.53;0.93;;;;;;;20.46;38.02;98516.41;5092329;28;20512;-47
2023/05/07 00:24:19;;;;;;;5.03;1.15;;;;;;;20.44;38.05;98507.88;5091042;28;20070;-47
2023/05/07 00:26:45;;;;;;;2.47;0.95;;;;;;;20.42;38.70;98520.69;5092348;28;20020;-47
2023/05/07 00:29:11;;;;;;;9.80;1.40;;;;;;;20.43;38.75;98540.97;5092309;28;20013;-47
2023/05/07 00:31:36;;;;;;;11.75;1.73;;;;;;;20.47;38.99;98550.03;5092477;28;20020;-47
2023/05/07 00:34:02;;;;;;;13.57;2.80;;;;;;;20.63;38.83;98558.84;5073789;28;20502;-47
2023/05/07 00:36:28;;;;;;;3.45;1.23;;;;;;;20.79;38.78;98558.81;5090877;28;20084;-47
2023/05/07 00:38:55;;;;;;;3.15;1.55;;;;;;;20.87;38.47;98550.25;5092182;28;20406;-47
2023/05/07 00:41:21;;;;;;;5.15;1.20;;;;;;;20.85;38.50;98549.72;5090834;28;20031;-47
2023/05/07 00:43:47;;;;;;;9.80;1.52;;;;;;;20.82;38.56;98547.59;5090718;28;20406;-47
2023/05/07 00:46:13;;;;;;;6.20;1.20;;;;;;;20.80;38.71;98536.38;5090694;28;20486;-47
2023/05/07 00:48:39;;;;;;;7.07;1.58;;;;;;;20.91;38.77;98536.09;5092010;28;20120;-47
2023/05/07 00:51:05;;;;;;;4.05;1.75;;;;;;;20.89;38.81;98535.56;5091985;28;20093;-47
2023/05/07 00:53:31;;;;;;;4.22;0.85;;;;;;;20.84;38.89;98526.78;5090664;28;20119;-47
2023/05/07 00:55:57;;;;;;;1.77;0.70;;;;;;;20.70;38.88;98530.00;5091870;28;20026;-47
2023/05/07 00:58:23;;;;;;;8.27;1.83;;;;;;;20.34;39.88;98535.38;5091929;28;20398;-47
2023/05/07 01:00:49;;;;;;;4.20;1.08;;;;;;;20.11;40.50;98544.69;5073087;28;20061;-47
2023/05/07 01:03:15;;;;;;;6.88;1.40;;;;;;;20.06;40.85;98549.22;5091915;28;20024;-47
2023/05/07 01:05:43;;;;;;;5.03;1.23;;;;;;;19.93;41.40;98548.69;5090465;28;20039;-47
2023/05/07 01:08:10;;;;;;;2.95;0.90;;;;;;;19.82;41.61;98549.75;5090498;28;20016;-47
2023/05/07 01:10:36;;;;;;;3.45;1.15;;;;;;;19.74;42.40;98553.72;5090397;28;20027;-48
2023/05/07 01:13:02;;;;;;;2.13;0.75;;;;;;;19.72;42.34;98545.19;5091818;28;20020;-47
2023/05/07 01:15:27;;;;;;;3.75;0.98;;;;;;;19.73;42.35;98549.44;5091632;28;20016;-47
2023/05/07 01:17:53;;;;;;;1.52;0.70;;;;;;;19.73;42.38;98552.09;5090371;28;20032;-47
2023/05/07 01:20:19;;;;;;;7.60;1.23;;;;;;;19.75;42.47;98562.50;5091662;28;20077;-47
2023/05/07 01:22:45;;;;;;;2.00;0.90;;;;;;;19.74;42.54;98556.38;5091658;28;20501;-47
2023/05/07 01:25:11;;;;;;;5.63;1.10;;;;;;;19.72;42.68;98560.38;5090330;28;20070;-47
2023/05/07 01:27:37;;;;;;;5.75;1.13;;;;;;;19.74;42.73;98558.25;5090339;28;20059;-47
2023/05/07 01:30:04;;;;;;;6.88;1.17;;;;;;;19.78;42.77;98569.16;5091638;28;20040;-47
2023/05/07 01:32:40;;;;;;;2.25;1.08;;;;;;;19.77;42.91;98565.69;5091598;28;20024;-46
2023/05/07 01:35:10;;;;;;;4.45;2.10;;;;;;;19.87;42.84;98568.38;5090119;28;20032;-47
2023/05/07 01:37:37;;;;;;;6.72;1.73;;;;;;;19.89;42.99;98562.78;5090290;28;20507;-47
2023/05/07 01:40:04;;;;;;;3.33;1.33;;;;;;;19.88;42.91;98551.34;5091547;28;20059;-47
2023/05/07 01:42:31;;;;;;;8.15;1.42;;;;;;;19.89;43.03;98560.13;5091452;28;20020;-47
2023/05/07 01:44:57;;;;;;;2.83;1.08;;;;;;;19.90;43.06;98570.53;5090155;28;20039;-47
2023/05/07 01:47:23;;;;;;;5.72;1.23;;;;;;;19.91;42.88;98558.00;5091490;28;20024;-47
2023/05/07 01:49:48;;;;;;;8.07;1.90;;;;;;;19.87;43.04;98571.03;5091639;28;20487;-47
2023/05/07 01:52:14;;;;;;;2.38;1.02;;;;;;;19.79;43.18;98574.22;5090047;28;20048;-47
2023/05/07 01:54:40;;;;;;;5.35;1.23;;;;;;;19.76;43.43;98574.78;5091325;28;20129;-47
2023/05/07 01:57:05;;;;;;;8.50;1.25;;;;;;;19.82;43.44;98570.22;5091379;28;20413;-47
2023/05/07 01:59:31;;;;;;;9.90;2.08;;;;;;;19.74;43.55;98569.69;5090125;28;20039;-47
2023/05/07 02:01:57;;;;;;;5.20;1.60;;;;;;;19.83;43.76;98580.63;5091332;28;20024;-47
2023/05/07 02:04:22;;;;;;;6.45;1.60;;;;;;;19.94;43.54;98568.94;5090292;28;20549;-47
2023/05/07 02:06:48;;;;;;;9.55;1.83;;;;;;;20.10;43.57;98576.94;5091503;28;20434;-47
2023/05/07 02:09:14;;;;;;;10.15;1.52;;;;;;;20.14;43.46;98568.16;5091287;28;20031;-47
2023/05/07 02:11:40;;;;;;;8.25;2.13;;;;;;;20.13;43.57;98579.06;5093400;28;20075;-47
2023/05/07 02:14:06;;;;;;;10.82;1.90;;;;;;;20.11;43.85;98566.00;5093769;28;20106;-47
2023/05/07 02:16:31;;;;;;;10.10;2.38;;;;;;;20.23;44.05;98571.09;5076597;28;20040;-47
2023/05/07 02:18:58;;;;;;;7.53;1.70;;;;;;;20.48;44.03;98578.28;5093397;28;20060;-47
2023/05/07 02:21:24;;;;;;;9.13;1.83;;;;;;;20.74;43.18;98570.28;5094724;28;20027;-46
2023/05/07 02:23:50;;;;;;;9.52;1.35;;;;;;;20.82;43.23;98574.25;5093328;28;20024;-47
2023/05/07 02:26:16;;;;;;;5.90;1.25;;;;;;;20.74;42.82;98567.59;5093393;28;20028;-47
2023/05/07 02:28:42;;;;;;;6.70;1.65;;;;;;;20.49;43.09;98574.53;5093189;28;20059;-47
2023/05/07 02:31:07;;;;;;;2.05;1.00;;;;;;;20.37;43.55;98568.69;5093148;28;20067;-47
2023/05/07 02:33:34;;;;;;;8.30;1.83;;;;;;;20.22;43.60;98563.34;5093394;28;20093;-47
2023/05/07 02:36:10;;;;;;;6.53;1.50;;;;;;;20.14;43.88;98564.66;5094164;28;20055;-47
2023/05/07 02:38:36;;;;;;;17.23;2.53;;;;;;;20.12;43.90;98564.13;5093050;28;20077;-47
2023/05/07 02:41:02;;;;;;;5.03;1.67;;;;;;;20.12;43.81;98566.81;5076433;28;20023;-47
2023/05/07 02:43:27;;;;;;;5.50;1.77;;;;;;;19.96;44.25;98555.34;5094289;28;20375;-47
2023/05/07 02:46:07;;;;;;;5.60;1.50;;;;;;;19.80;44.81;98554.53;5094177;28;20448;-47
2023/05/07 02:48:33;;;;;;;22.00;3.90;;;;;;;19.71;45.38;98548.91;5094171;28;20039;-47
2023/05/07 02:51:00;;;;;;;11.88;2.30;;;;;;;19.89;45.35;98549.47;5094110;28;20032;-47
2023/05/07 02:53:26;;;;;;;15.70;2.10;;;;;;;19.98;44.95;98550.56;5094102;28;20500;-47
2023/05/07 02:56:02;;;;;;;2.88;1.50;;;;;;;19.98;44.75;98547.91;5092612;28;20571;-47
2023/05/07 02:58:28;;;;;;;3.78;1.63;;;;;;;19.89;44.76;98544.94;5092706;28;20035;-47
2023/05/07 03:00:56;;;;;;;4.75;1.08;;;;;;;19.79;44.95;98554.78;5092705;28;20103;-47
2023/05/07 03:03:22;;;;;;;8.88;2.47;;;;;;;19.67;45.34;98547.00;5093840;28;20030;-47
2023/05/07 03:05:48;;;;;;;14.02;2.70;;;;;;;19.73;45.33;98536.13;5093812;28;20447;-47
2023/05/07 03:08:13;;;;;;;11.13;2.33;;;;;;;19.62;45.34;98547.00;5093765;28;20031;-47
2023/05/07 03:10:39;;;;;;;6.00;1.50;;;;;;;19.25;46.25;98540.75;5093747;28;20020;-47
2023/05/07 03:13:05;;;;;;;3.33;1.30;;;;;;;18.88;47.15;98546.19;5092447;28;20023;-47
2023/05/07 03:15:30;;;;;;;16.00;2.53;;;;;;;18.65;48.22;98545.50;5092193;28;20429;-47
2023/05/07 03:17:56;;;;;;;11.98;2.00;;;;;;;18.62;48.58;98542.56;5092324;28;20028;-47
2023/05/07 03:20:22;;;;;;;19.92;3.88;;;;;;;18.53;48.71;98555.50;5093854;28;20035;-47
2023/05/07 03:22:48;;;;;;;9.15;1.60;;;;;;;18.54;48.91;98546.47;5092865;28;20016;-47
2023/05/07 03:25:14;;;;;;;10.75;2.22;;;;;;;18.52;48.91;98552.03;5092054;28;20024;-48
2023/05/07 03:27:41;;;;;;;5.78;1.65;;;;;;;18.47;49.12;98545.88;5092125;28;20028;-47
2023/05/07 03:30:08;;;;;;;6.40;1.95;;;;;;;18.49;49.31;98533.16;5091977;28;20031;-46
2023/05/07 03:32:35;;;;;;;14.88;2.03;;;;;;;18.57;49.23;98535.31;5093356;28;20603;-47
2023/05/07 03:35:02;;;;;;;8.63;1.92;;;;;;;18.78;49.30;98546.91;5091692;28;20040;-47
2023/05/07 03:37:28;;;;;;;6.80;1.50;;;;;;;19.21;47.96;98547.66;5093219;28;20032;-47
2023/05/07 03:39:53;;;;;;;10.40;2.38;;;;;;;19.19;47.67;98559.63;5091824;28;20027;-47
2023/05/07 03:42:20;;;;;;;7.85;1.58;;;;;;;19.06;47.74;98558.25;5091819;28;20028;-47
2023/05/07 03:44:45;;;;;;;5.90;1.50;;;;;;;18.87;48.12;98558.66;5091782;28;20027;-47
2023/05/07 03:47:13;;;;;;;9.80;1.70;;;;;;;18.69;48.90;98565.19;5091719;28;20016;-47
2023/05/07 03:49:39;;;;;;;8.15;1.85;;;;;;;18.67;49.23;98556.69;5092958;28;20012;-47
2023/05/07 03:52:05;;;;;;;17.45;2.22;;;;;;;18.74;49.18;98554.56;5092903;28;20022;-47
2023/05/07 03:54:31;;;;;;;11.50;1.92;;;;;;;18.99;48.79;98545.16;5092786;28;20032;-47
2023/05/07 03:56:56;;;;;;;4.18;1.55;;;;;;;19.40;47.95;98534.72;5092886;28;20032;-47
2023/05/07 03:59:22;;;;;;;14.32;3.00;;;;;;;19.75;46.97;98531.34;5091536;28;20062;-47
2023/05/07 04:01:51;;;;;;;10.82;2.15;;;;;;;19.78;46.89;98531.88;5092762;28;20020;-46
2023/05/07 04:04:17;;;;;;;14.07;2.40;;;;;;;19.49;47.49;98541.09;5092743;28;20056;-47
2023/05/07 04:06:42;;;;;;;12.60;1.90;;;;;;;19.46;47.65;98546.97;5092668;28;20058;-47
2023/05/07 04:09:08;;;;;;;29.58;3.83;;;;;;;19.48;47.51;98557.34;5091368;28;20063;-47
2023/05/07 04:11:35;;;;;;;11.52;1.60;;;;;;;19.54;47.57;98559.75;5092565;28;20016;-47
2023/05/07 04:14:01;;;;;;;13.65;2.58;;;;;;;19.56;47.52;98567.50;5092411;28;20020;-47
2023/05/07 04:16:27;;;;;;;5.00;1.50;;;;;;;19.47;47.49;98580.50;5092517;28;20027;-47
2023/05/07 04:18:52;;;;;;;22.17;3.85;;;;;;;19.25;47.88;98587.84;5091164;28;20020;-47
2023/05/07 04:21:20;;;;;;;10.95;2.90;;;;;;;19.19;48.29;98599.53;5092378;28;20082;-47
2023/05/07 04:23:47;;;;;;;2.35;1.42;;;;;;;19.18;48.28;98603.28;5092459;28;20020;-47
2023/05/07 04:26:13;;;;;;;6.82;2.25;;;;;;;19.02;48.86;98603.19;5092360;28;20074;-47
2023/05/07 04:28:40;;;;;;;8.07;1.30;;;;;;;18.85;49.21;98605.19;5092313;28;20442;-47
2023/05/07 04:31:06;;;;;;;8.73;2.13;;;;;;;18.60;50.24;98606.59;5091192;28;20524;-47
2023/05/07 04:33:32;;;;;;;5.43;1.27;;;;;;;18.51;50.38;98606.28;5092091;28;20032;-47
2023/05/07 04:36:02;;;;;;;30.15;5.50;;;;;;;18.57;50.89;98599.13;5091332;28;20506;-47
2023/05/07 04:38:29;;;;;;;14.02;2.75;;;;;;;18.78;50.45;98610.72;5092202;28;20047;-47
2023/05/07 04:40:56;;;;;;;10.15;2.20;;;;;;;18.88;50.11;98608.13;5092103;28;20085;-47
2023/05/07 04:43:22;;;;;;;5.00;1.65;;;;;;;19.11;49.76;98608.81;5092022;28;20039;-47
2023/05/07 04:45:49;;;;;;;14.63;2.53;;;;;;;19.22;49.39;98601.69;5090805;28;20024;-47
2023/05/07 04:48:15;;;;;;;11.25;2.72;;;;;;;19.34;48.96;98607.59;5092019;28;20058;-47
2023/05/07 04:50:41;;;;;;;6.63;1.85;;;;;;;19.28;49.13;98611.31;5091911;28;20028;-47
2023/05/07 04:53:06;;;;;;;6.10;1.60;;;;;;;19.34;49.43;98610.25;5091954;28;20024;-46
2023/05/07 04:55:32;;;;;;;7.35;1.80;;;;;;;19.28;49.18;98619.28;5091908;28;20043;-47
2023/05/07 04:57:58;;;;;;;4.95;1.23;;;;;;;19.10;50.29;98617.84;5091920;28;20028;-47
2023/05/07 05:00:25;;;;;;;16.13;2.88;;;;;;;18.90;52.08;98619.31;5090555;28;20565;-47
2023/05/07 05:02:50;;;;;;;7.60;1.90;;;;;;;18.76;52.14;98621.59;5090581;28;20030;-47
2023/05/07 05:05:16;;;;;;;12.63;2.72;;;;;;;18.67;52.60;98630.28;5092097;28;20028;-47
2023/05/07 05:07:42;;;;;;;5.50;1.35;;;;;;;18.69;51.92;98631.66;5073833;28;20028;-47
2023/05/07 05:10:08;;;;;;;9.52;1.95;;;;;;;18.79;52.17;98638.91;5091827;28;20102;-47
2023/05/07 05:12:33;;;;;;;6.38;1.60;;;;;;;18.88;52.17;98634.72;5090501;28;20401;-47
2023/05/07 05:14:59;;;;;;;7.05;1.70;;;;;;;18.96;52.02;98636.13;5091714;28;20477;-46
2023/05/07 05:17:24;;;;;;;9.60;2.25;;;;;;;18.99;52.00;98643.56;5091662;28;20489;-46
2023/05/07 05:19:50;;;;;;;7.40;1.85;;;;;;;19.02;52.06;98643.06;5091787;28;20405;-47
2023/05/07 05:22:16;;;;;;;13.45;2.15;;;;;;;19.06;52.16;98651.34;5091671;28;20052;-47
2023/05/07 05:24:42;;;;;;;21.75;2.78;;;;;;;19.06;52.50;98654.00;5090390;28;20119;-46
2023/05/07 05:27:08;;;;;;;11.73;2.00;;;;;;;19.12;52.56;98653.78;5091696;28;20028;-47
2023/05/07 05:29:33;;;;;;;19.00;2.85;;;;;;;19.09;52.68;98654.28;5090281;28;20056;-47
2023/05/07 05:31:59;;;;;;;5.60;2.00;;;;;;;19.18;52.54;98648.50;5091612;28;20048;-47
2023/05/07 05:34:25;;;;;;;17.38;2.05;;;;;;;19.16;52.31;98649.53;5089972;28;20051;-47
2023/05/07 05:36:50;;;;;;;12.02;2.22;;;;;;;19.26;52.35;98650.66;5091579;28;20044;-47
2023/05/07 05:39:16;;;;;;;5.00;1.73;;;;;;;19.34;52.22;98653.63;5090227;28;20031;-47
2023/05/07 05:41:42;;;;;;;7.10;2.40;;;;;;;19.28;51.90;98656.53;5091564;28;20390;-47
2023/05/07 05:44:08;;;;;;;12.93;2.60;;;;;;;19.25;52.09;98657.81;5073454;28;20024;-47
2023/05/07 05:46:33;;;;;;;11.07;1.77;;;;;;;19.38;51.56;98653.09;5092314;28;20110;-47
2023/05/07 05:48:59;;;;;;;5.85;1.80;;;;;;;19.46;51.48;98660.63;5094182;28;20037;-47
2023/05/07 05:51:25;;;;;;;5.65;1.80;;;;;;;19.47;51.40;98663.00;5095165;28;20053;-47
2023/05/07 05:53:50;;;;;;;7.50;2.50;;;;;;;19.49;51.54;98660.09;5095278;28;20093;-47
2023/05/07 05:56:16;;;;;;;2.10;1.20;;;;;;;19.55;51.08;98656.38;5093812;28;20028;-47
2023/05/07 05:58:42;;;;;;;10.25;1.88;;;;;;;19.58;50.63;98650.56;5093863;28;20090;-46
2023/05/07 06:01:08;;;;;;;3.30;1.50;;;;;;;19.74;50.11;98652.25;5095140;28;20074;-46
2023/05/07 06:03:34;;;;;;;5.55;1.90;;;;;;;19.98;48.96;98648.31;5093757;28;20020;-47
2023/05/07 06:06:00;;;;;;;4.53;1.42;;;;;;;20.58;47.71;98646.78;5093682;28;20489;-47
2023/05/07 06:08:29;;;;;;;5.10;1.75;;;;;;;22.17;45.41;98629.50;5094919;28;20024;-47
2023/05/07 06:10:55;;;;;;;8.77;2.10;;;;;;;23.42;41.77;98635.13;5094926;28;20485;-47
2023/05/07 06:13:20;;;;;;;2.85;1.45;;;;;;;24.05;40.06;98630.59;5093524;28;20024;-47
2023/05/07 06:15:46;;;;;;;10.77;2.38;;;;;;;23.82;40.31;98634.91;5094745;28;20031;-47
2023/05/07 06:18:11;;;;;;;8.50;1.98;;;;;;;24.13;40.01;98625.38;5093492;28;20611;-47
2023/05/07 06:20:37;;;;;;;10.50;1.95;;;;;;;25.53;37.97;98629.94;5093522;28;20558;-47
2023/05/07 06:23:03;;;;;;;1.95;1.40;;;;;;;27.02;35.06;98621.13;5094929;28;20016;-47
2023/05/07 06:25:29;;;;;;;6.18;1.60;;;;;;;27.92;33.24;98622.69;5093294;28;20420;-47
2023/05/07 06:27:54;;;;;;;3.97;1.70;;;;;;;28.22;32.36;98626.34;5094559;28;20027;-47
2023/05/07 06:30:20;;;;;;;5.65;1.80;;;;;;;27.55;31.67;98630.19;5094495;28;20397;-47
2023/05/07 06:32:46;;;;;;;3.75;1.60;;;;;;;26.78;33.41;98633.03;5093525;28;20075;-47
2023/05/07 06:35:11;;;;;;;5.47;1.55;;;;;;;26.95;34.72;98635.06;5094191;28;20064;-47
2023/05/07 06:37:39;;;;;;;4.78;1.20;;;;;;;27.95;32.81;98640.91;5094439;28;20039;-47
2023/05/07 06:40:09;;;;;;;8.05;1.65;;;;;;;29.84;30.73;98623.72;5094380;28;20501;-47
2023/05/07 06:42:36;;;;;;;9.05;2.00;;;;;;;32.12;27.39;98614.53;5094269;28;20025;-47
2023/05/07 06:45:02;;;;;;;15.15;3.17;;;;;;;33.03;25.52;98611.09;5092938;28;20088;-47
2023/05/07 06:47:28;;;;;;;12.18;2.28;;;;;;;33.31;24.23;98609.44;5094136;28;20402;-47
2023/05/07 06:49:53;;;;;;;13.68;3.40;;;;;;;33.53;24.41;98618.88;5093024;28;20016;-47
2023/05/07 06:52:19;;;;;;;8.63;1.90;;;;;;;33.61;23.76;98610.50;5094083;28;20020;-47
2023/05/07 06:54:45;;;;;;;3.80;1.10;;;;;;;32.98;24.52;98605.94;5094261;28;20036;-47
2023/05/07 06:57:10;;;;;;;7.78;1.40;;;;;;;32.80;24.98;98599.25;5093026;28;20157;-47
2023/05/07 06:59:36;;;;;;;5.82;1.30;;;;;;;32.87;24.94;98610.31;5094013;28;20497;-47
2023/05/07 07:02:02;;;;;;;3.60;1.02;;;;;;;32.82;24.92;98611.38;5094184;28;20500;-48
2023/05/07 07:04:28;;;;;;;4.95;1.38;;;;;;;32.68;25.68;98615.63;5092906;28;20035;-48
2023/05/07 07:06:54;;;;;;;3.10;0.90;;;;;;;32.43;25.67;98619.25;5093886;28;20397;-47
2023/05/07 07:09:19;;;;;;;6.53;1.23;;;;;;;32.06;26.25;98617.84;5092529;28;20024;-47
2023/05/07 07:11:45;;;;;;;3.95;1.60;;;;;;;31.23;27.12;98615.31;5092471;28;20508;-47
2023/05/07 07:14:11;;;;;;;7.95;1.40;;;;;;;30.32;28.18;98618.09;5093654;28;20024;-48
2023/05/07 07:16:36;;;;;;;6.47;1.20;;;;;;;29.32;30.15;98626.72;5093727;28;20105;-47
2023/05/07 07:19:02;;;;;;;8.65;1.27;;;;;;;28.32;30.91;98630.63;5093696;28;20020;-47
2023/05/07 07:21:28;;;;;;;11.50;2.22;;;;;;;27.69;31.92;98631.66;5093525;28;20063;-47
2023/05/07 07:23:53;;;;;;;3.58;1.40;;;;;;;27.40;32.95;98634.91;5093818;28;20027;-47
2023/05/07 07:26:19;;;;;;;6.45;1.95;;;;;;;27.25;32.87;98633.47;5092158;28;20537;-47
2023/05/07 07:28:46;;;;;;;9.60;1.63;;;;;;;27.07;33.53;98634.47;5093441;28;20106;-47
2023/05/07 07:31:12;;;;;;;12.68;1.92;;;;;;;27.11;33.88;98632.75;5091997;28;20028;-47
2023/05/07 07:33:37;;;;;;;20.45;4.68;;;;;;;27.31;33.29;98631.44;5093383;28;20031;-47
2023/05/07 07:36:05;;;;;;;5.25;1.58;;;;;;;27.47;33.10;98642.56;5092985;28;20043;-47
2023/05/07 07:38:30;;;;;;;5.80;1.73;;;;;;;27.59;33.18;98631.19;5092191;28;20027;-47
2023/05/07 07:40:56;;;;;;;6.88;1.48;;;;;;;27.87;32.20;98642.53;5091913;28;20028;-47
2023/05/07 07:43:22;;;;;;;5.70;1.55;;;;;;;28.20;32.09;98645.53;5093421;28;20034;-47
2023/05/07 07:45:47;;;;;;;6.63;1.55;;;;;;;28.23;31.47;98654.91;5091899;28;20028;-47
2023/05/07 07:48:13;;;;;;;9.48;1.70;;;;;;;27.79;32.16;98662.94;5093105;28;20016;-47
2023/05/07 07:50:39;;;;;;;7.85;1.50;;;;;;;27.10;32.72;98671.56;5091664;28;20107;-48
2023/05/07 07:53:04;;;;;;;5.82;1.90;;;;;;;26.70;33.18;98666.09;5091658;28;20044;-47
2023/05/07 07:55:31;;;;;;;8.27;1.67;;;;;;;26.53;34.33;98680.22;5092865;28;20056;-47
2023/05/07 07:57:57;;;;;;;8.73;1.90;;;;;;;26.38;34.40;98680.56;5092810;28;20242;-47
2023/05/07 08:00:23;;;;;;;16.00;2.42;;;;;;;26.03;35.01;98689.16;5091485;28;20111;-47
2023/05/07 08:02:48;;;;;;;6.82;1.60;;;;;;;25.35;36.43;98693.44;5091504;28;20401;-47
2023/05/07 08:05:15;;;;;;;11.18;2.75;;;;;;;24.98;37.22;98697.03;5092656;28;20020;-47
2023/05/07 08:07:41;;;;;;;6.68;1.85;;;;;;;24.92;37.61;98693.66;5092699;28;20021;-47
2023/05/07 08:10:07;;;;;;;6.75;1.60;;;;;;;24.86;37.80;98690.25;5092447;28;20027;-47
2023/05/07 08:12:32;;;;;;;5.50;1.35;;;;;;;24.79;38.27;98694.41;5092594;28;20508;-47
2023/05/07 08:14:58;;;;;;;3.47;1.40;;;;;;;24.56;38.49;98701.47;5092572;28;20062;-47
2023/05/07 08:17:24;;;;;;;9.23;1.83;;;;;;;24.28;39.26;98704.78;5092538;28;20024;-47
2023/05/07 08:19:50;;;;;;;12.20;2.25;;;;;;;24.23;39.51;98704.88;5092478;28;20161;-47
2023/05/07 08:22:17;;;;;;;6.70;1.42;;;;;;;24.15;39.92;98713.56;5092430;28;20529;-47
2023/05/07 08:24:43;;;;;;;11.18;2.13;;;;;;;24.02;40.58;98707.03;5092424;28;20028;-47
2023/05/07 08:27:08;;;;;;;7.75;1.90;;;;;;;23.97;40.29;98717.03;5092356;28;20028;-47
2023/05/07 08:29:34;;;;;;;14.90;1.73;;;;;;;23.93;40.49;98716.81;5091016;28;20027;-47
2023/05/07 08:32:00;;;;;;;5.38;1.10;;;;;;;23.96;40.47;98721.56;5090969;28;20020;-47
2023/05/07 08:34:25;;;;;;;8.93;1.80;;;;;;;23.96;40.51;98721.56;5091979;28;20052;-47
2023/05/07 08:36:51;;;;;;;6.00;1.98;;;;;;;24.22;40.08;98727.41;5092248;28;20031;-47
2023/05/07 08:39:17;;;;;;;8.63;1.98;;;;;;;24.40;39.56;98725.03;5092203;28;20067;-47
2023/05/07 08:41:46;;;;;;;11.80;1.85;;;;;;;24.35;38.44;98731.28;5074020;28;20028;-47
2023/05/07 08:44:14;;;;;;;7.30;1.52;;;;;;;24.36;38.59;98738.22;5092037;28;20046;-47
2023/05/07 08:46:41;;;;;;;6.13;1.48;;;;;;;24.46;38.22;98737.28;5090740;28;20028;-47
2023/05/07 08:49:07;;;;;;;27.92;2.70;;;;;;;24.44;38.71;98740.25;5092034;28;20024;-47
2023/05/07 08:51:33;;;;;;;13.75;2.05;;;;;;;24.35;38.91;98742.00;5092005;28;20020;-47
2023/05/07 08:54:01;;;;;;;11.35;2.08;;;;;;;24.26;38.79;98746.41;5090719;28;20046;-47
2023/05/07 08:56:27;;;;;;;12.13;3.10;;;;;;;24.34;38.44;98743.06;5091936;28;20030;-47
2023/05/07 08:58:56;;;;;;;2.42;1.30;;;;;;;24.47;38.37;98750.41;5092012;28;20031;-47
2023/05/07 09:01:22;;;;;;;4.32;1.42;;;;;;;24.54;38.56;98754.66;5091830;28;20439;-47
2023/05/07 09:03:50;;;;;;;9.55;2.50;;;;;;;24.45;38.70;98755.25;5091925;28;20063;-47
2023/05/07 09:06:16;;;;;;;8.38;1.70;;;;;;;24.25;39.58;98758.22;5091851;28;20028;-47
2023/05/07 09:08:49;;;;;;;11.68;2.10;;;;;;;23.97;41.88;98763.41;5091775;28;20020;-47
2023/05/07 09:11:15;;;;;;;8.25;2.50;;;;;;;23.89;43.85;98766.72;5091754;28;20024;-47
2023/05/07 09:13:40;;;;;;;14.70;3.08;;;;;;;23.82;46.23;98768.94;5090510;28;20012;-47
2023/05/07 09:16:13;;;;;;;19.63;2.25;;;;;;;23.68;48.50;98771.44;5090403;28;20405;-47
2023/05/07 09:18:46;;;;;;;10.82;1.60;;;;;;;23.39;48.92;98774.97;5090454;28;20031;-46
2023/05/07 09:21:16;;;;;;;8.82;2.40;;;;;;;23.05;51.43;98781.13;5093677;28;20359;-46
2023/05/07 09:23:42;;;;;;;6.80;1.73;;;;;;;22.78;53.23;98784.25;5095961;28;20023;-46
2023/05/07 09:26:11;;;;;;;7.13;1.90;;;;;;;22.49;54.33;98792.97;5095791;28;20040;-46
2023/05/07 09:28:44;;;;;;;14.25;1.90;;;;;;;22.25;55.63;98784.00;5094811;28;20036;-46
2023/05/07 09:31:11;;;;;;;15.20;2.20;;;;;;;22.22;56.53;98789.91;5094464;28;20505;-46
2023/05/07 09:33:38;;;;;;;9.40;2.58;;;;;;;22.06;56.85;98797.16;5095739;28;20056;-46
2023/05/07 09:36:04;;;;;;;11.18;2.75;;;;;;;21.87;57.93;98802.28;5095391;28;20047;-46
2023/05/07 09:38:32;;;;;;;8.18;1.90;;;;;;;21.71;59.04;98806.88;5094291;28;20024;-46
2023/05/07 09:41:12;;;;;;;19.40;2.95;;;;;;;21.44;61.07;98799.97;5094172;28;20528;-45
2023/05/07 09:43:40;;;;;;;21.15;3.00;;;;;;;21.37;62.62;98814.63;5095733;28;20035;-45
2023/05/07 09:46:12;;;;;;;6.95;1.67;;;;;;;21.28;64.04;98809.81;5095438;28;20035;-45
2023/05/07 09:48:40;;;;;;;6.95;1.95;;;;;;;21.22;64.67;98802.88;5095362;28;20024;-45
2023/05/07 09:51:21;;;;;;;18.13;2.40;;;;;;;21.15;65.14;98813.03;5095294;28;20028;-46
2023/05/07 09:53:48;;;;;;;11.57;1.90;;;;;;;21.16;64.43;98809.28;5094194;28;20031;-46
2023/05/07 09:56:17;;;;;;;17.08;2.25;;;;;;;21.30;64.30;98814.91;5095114;28;20031;-46
2023/05/07 09:58:45;;;;;;;8.88;1.70;;;;;;;21.44;63.37;98809.84;5095224;28;20393;-46
2023/05/07 10:01:12;;;;;;;10.57;3.13;;;;;;;21.57;62.93;98814.66;5077180;28;20172;-47
2023/05/07 10:03:40;;;;;;;5.80;1.67;;;;;;;21.68;61.76;98820.78;5095122;28;20409;-47
2023/05/07 10:06:08;;;;;;;7.55;1.55;;;;;;;21.70;60.87;98826.66;5094933;28;20040;-47
2023/05/07 10:08:35;;;;;;;7.25;1.92;;;;;;;21.67;60.49;98825.31;5095030;28;20020;-47
2023/05/07 10:11:03;;;;;;;9.00;2.00;;;;;;;21.71;60.47;98837.06;5093638;28;20020;-47
2023/05/07 10:13:29;;;;;;;9.27;2.30;;;;;;;21.74;60.76;98833.06;5094887;28;20017;-47
2023/05/07 10:15:55;;;;;;;6.53;1.92;;;;;;;21.70;61.34;98835.47;5093513;28;20032;-47
2023/05/07 10:18:23;;;;;;;9.40;2.13;;;;;;;21.58;62.02;98837.63;5094864;28;20028;-47
2023/05/07 10:20:52;;;;;;;9.77;2.03;;;;;;;21.47;63.50;98839.50;5094767;28;20028;-47
2023/05/07 10:23:24;;;;;;;12.02;2.50;;;;;;;21.42;65.02;98842.13;5093401;28;20082;-47
2023/05/07 10:25:50;;;;;;;9.48;2.38;;;;;;;21.34;67.49;98846.13;5093392;28;20024;-46
2023/05/07 10:28:19;;;;;;;10.35;2.15;;;;;;;21.28;69.33;98843.75;5093421;28;20030;-46
2023/05/07 10:30:54;;;;;;;14.52;3.20;;;;;;;21.23;70.97;98844.53;5093313;28;20032;-45
2023/05/07 10:33:26;;;;;;;18.35;3.25;;;;;;;21.19;72.32;98853.31;5094586;28;20024;-46
2023/05/07 10:35:58;;;;;;;9.88;2.55;;;;;;;21.07;73.22;98841.06;5094282;28;20510;-46
2023/05/07 10:38:25;;;;;;;8.88;2.33;;;;;;;20.94;74.39;98855.69;5093217;28;20043;-46
2023/05/07 10:40:51;;;;;;;20.00;4.40;;;;;;;20.81;75.87;98847.41;5093048;28;20047;-45
2023/05/07 10:43:17;;;;;;;7.13;2.72;;;;;;;20.75;76.95;98851.94;5093033;28;20473;-46
2023/05/07 10:45:42;;;;;;;7.93;2.58;;;;;;;20.62;78.19;98847.09;5094318;28;20111;-46
2023/05/07 10:48:15;;;;;;;17.15;2.63;;;;;;;20.51;78.82;98847.03;5092936;28;20448;-46
2023/05/07 10:50:42;;;;;;;15.68;3.67;;;;;;;20.54;80.60;98841.19;5094453;28;20442;-46
2023/05/07 10:53:16;;;;;;;10.07;3.15;;;;;;;20.45;81.38;98845.41;5094162;28;20032;-46
2023/05/07 10:55:46;;;;;;;7.20;2.70;;;;;;;20.38;82.83;98846.69;5094086;28;20055;-46
2023/05/07 10:58:21;;;;;;;12.43;3.58;;;;;;;20.28;84.34;98858.94;5094025;28;20054;-46
2023/05/07 11:00:48;;;;;;;10.80;2.50;;;;;;;20.20;86.04;98858.59;5094066;28;20031;-46
2023/05/07 11:03:14;;;;;;;23.55;4.63;;;;;;;20.08;86.43;98856.97;5093980;28;20062;-46
2023/05/07 11:05:41;;;;;;;10.15;3.08;;;;;;;20.06;88.00;98858.25;5093848;28;20412;-46
2023/05/07 11:08:08;;;;;;;15.93;4.20;;;;;;;20.09;88.34;98863.09;5093871;28;20024;-45
2023/05/07 11:10:49;;;;;;;20.30;3.75;;;;;;;20.07;87.04;98862.56;5093830;28;20106;-46
2023/05/07 11:13:16;;;;;;;13.05;3.25;;;;;;;20.14;87.80;98865.78;5093741;28;20024;-46
2023/05/07 11:15:44;;;;;;;7.22;2.67;;;;;;;20.15;87.96;98865.53;5092464;28;20020;-46
2023/05/07 11:18:12;;;;;;;8.10;2.67;;;;;;;20.19;86.40;98862.34;5093636;28;20075;-46
2023/05/07 11:20:51;;;;;;;23.27;5.05;;;;;;;20.23;86.05;98866.91;5093585;28;20035;-46
2023/05/07 11:23:35;;;;;;;6.68;2.40;;;;;;;20.19;85.09;98865.00;5092265;28;20060;-46
2023/05/07 11:26:06;;;;;;;10.10;2.70;;;;;;;20.32;86.31;98869.88;5092210;28;20089;-46
2023/05/07 11:28:37;;;;;;;13.65;3.00;;;;;;;20.66;86.56;98867.63;5093487;28;20024;-45